sensor_id;sensor_type;location;lat;lon;timestamp;temperature;humidity
2767;DHT22;1391;46.74287300;11.63683300;2023-03-19T00:00:38;4.40;74.30
2767;DHT22;1391;46.74287300;11.63683300;2023-03-19T00:03:05;4.10;75.80
2767;DHT22;1391;46.74287300;11.63683300;2023-03-19T00:05:32;4.20;77.20
2767;DHT22;1391;46.74287300;11.63683300;2023-03-19T00:08:00;4.30;76.70
2767;DHT22;1391;46.74287300;11.63683300;2023-03-19T00:10:28;4.20;75.70
2767;DHT22;1391;46.74287300;11.63683300;2023-03-19T00:12:56;4.40;74.60
2767;DHT22;1391;46.74287300;11.63683300;2023-03-19T00:15:23;4.60;74.60
2767;DHT22;1391;46.74287300;11.63683300;2023-03-19T00:17:50;4.40;75.80
2767;DHT22;1391;46.74287300;11.63683300;2023-03-19T00:20:18;4.10;76.50
2767;DHT22;1391;46.74287300;11.63683300;2023-03-19T00:22:46;4.30;76.90
2767;DHT22;1391;46.74287300;11.63683300;2023-03-19T00:25:14;4.50;76.70
2767;DHT22;1391;46.74287300;11.63683300;2023-03-19T00:27:42;4.60;76.10
2767;DHT22;1391;46.74287300;11.63683300;2023-03-19T00:30:10;4.40;75.40
2767;DHT22;1391;46.74287300;11.63683300;2023-03-19T00:32:40;4.00;76.30
2767;DHT22;1391;46.74287300;11.63683300;2023-03-19T00:35:08;4.10;78.80
2767;DHT22;1391;46.74287300;11.63683300;2023-03-19T00:37:36;4.10;79.30
2767;DHT22;1391;46.74287300;11.63683300;2023-03-19T00:40:04;4.00;79.70
2767;DHT22;1391;46.74287300;11.63683300;2023-03-19T00:42:33;3.50;80.40
2767;DHT22;1391;46.74287300;11.63683300;2023-03-19T00:45:03;3.30;82.20
2767;DHT22;1391;46.74287300;11.63683300;2023-03-19T00:47:30;3.60;83.20
2767;DHT22;1391;46.74287300;11.63683300;2023-03-19T00:49:57;3.00;85.00
2767;DHT22;1391;46.74287300;11.63683300;2023-03-19T00:52:25;3.40;87.60
2767;DHT22;1391;46.74287300;11.63683300;2023-03-19T00:54:52;3.30;86.30
2767;DHT22;1391;46.74287300;11.63683300;2023-03-19T00:57:19;3.50;85.80
2767;DHT22;1391;46.74287300;11.63683300;2023-03-19T00:59:47;3.70;85.90
2767;DHT22;1391;46.74287300;11.63683300;2023-03-19T01:02:16;3.40;85.00
2767;DHT22;1391;46.74287300;11.63683300;2023-03-19T01:04:43;3.40;85.30
2767;DHT22;1391;46.74287300;11.63683300;2023-03-19T01:07:10;3.40;84.20
2767;DHT22;1391;46.74287300;11.63683300;2023-03-19T01:09:38;3.60;83.60
2767;DHT22;1391;46.74287300;11.63683300;2023-03-19T01:12:06;3.90;83.50
2767;DHT22;1391;46.74287300;11.63683300;2023-03-19T01:14:34;4.00;82.90
2767;DHT22;1391;46.74287300;11.63683300;2023-03-19T01:17:02;3.60;81.70
2767;DHT22;1391;46.74287300;11.63683300;2023-03-19T01:19:31;3.10;83.40
2767;DHT22;1391;46.74287300;11.63683300;2023-03-19T01:21:58;2.70;86.00
2767;DHT22;1391;46.74287300;11.63683300;2023-03-19T01:24:28;3.30;89.20
2767;DHT22;1391;46.74287300;11.63683300;2023-03-19T01:26:56;3.00;89.50
2767;DHT22;1391;46.74287300;11.63683300;2023-03-19T01:29:23;3.10;88.00
2767;DHT22;1391;46.74287300;11.63683300;2023-03-19T01:31:50;3.30;89.20
2767;DHT22;1391;46.74287300;11.63683300;2023-03-19T01:34:17;3.00;88.40
2767;DHT22;1391;46.74287300;11.63683300;2023-03-19T01:36:47;3.30;88.40
2767;DHT22;1391;46.74287300;11.63683300;2023-03-19T01:39:14;2.90;88.00
2767;DHT22;1391;46.74287300;11.63683300;2023-03-19T01:41:41;2.90;88.20
2767;DHT22;1391;46.74287300;11.63683300;2023-03-19T01:44:26;2.50;91.90
2767;DHT22;1391;46.74287300;11.63683300;2023-03-19T01:46:57;2.90;92.20
2767;DHT22;1391;46.74287300;11.63683300;2023-03-19T01:49:28;3.20;91.20
2767;DHT22;1391;46.74287300;11.63683300;2023-03-19T01:51:59;3.40;90.50
2767;DHT22;1391;46.74287300;11.63683300;2023-03-19T01:54:29;3.20;90.90
2767;DHT22;1391;46.74287300;11.63683300;2023-03-19T01:57:01;2.80;90.90
2767;DHT22;1391;46.74287300;11.63683300;2023-03-19T01:59:33;2.50;90.70
2767;DHT22;1391;46.74287300;11.63683300;2023-03-19T02:02:05;2.40;91.90
2767;DHT22;1391;46.74287300;11.63683300;2023-03-19T02:04:38;2.50;92.60
2767;DHT22;1391;46.74287300;11.63683300;2023-03-19T02:07:08;2.90;93.30
2767;DHT22;1391;46.74287300;11.63683300;2023-03-19T02:09:38;3.10;93.00
2767;DHT22;1391;46.74287300;11.63683300;2023-03-19T02:12:08;2.50;91.80
2767;DHT22;1391;46.74287300;11.63683300;2023-03-19T02:14:36;2.50;92.60
2767;DHT22;1391;46.74287300;11.63683300;2023-03-19T02:17:03;2.40;93.20
2767;DHT22;1391;46.74287300;11.63683300;2023-03-19T02:19:39;2.50;93.20
2767;DHT22;1391;46.74287300;11.63683300;2023-03-19T02:22:13;2.80;93.70
2767;DHT22;1391;46.74287300;11.63683300;2023-03-19T02:24:49;2.50;93.70
2767;DHT22;1391;46.74287300;11.63683300;2023-03-19T02:27:20;2.50;94.00
2767;DHT22;1391;46.74287300;11.63683300;2023-03-19T02:29:48;2.30;94.00
2767;DHT22;1391;46.74287300;11.63683300;2023-03-19T02:32:15;2.30;95.10
2767;DHT22;1391;46.74287300;11.63683300;2023-03-19T02:34:43;2.10;96.00
2767;DHT22;1391;46.74287300;11.63683300;2023-03-19T02:37:15;2.10;96.00
2767;DHT22;1391;46.74287300;11.63683300;2023-03-19T02:39:49;2.30;96.50
2767;DHT22;1391;46.74287300;11.63683300;2023-03-19T02:42:21;2.10;96.30
2767;DHT22;1391;46.74287300;11.63683300;2023-03-19T02:44:50;2.20;95.80
2767;DHT22;1391;46.74287300;11.63683300;2023-03-19T02:47:17;2.10;96.00
2767;DHT22;1391;46.74287300;11.63683300;2023-03-19T02:49:45;2.30;96.90
2767;DHT22;1391;46.74287300;11.63683300;2023-03-19T02:52:12;2.40;96.80
2767;DHT22;1391;46.74287300;11.63683300;2023-03-19T02:54:42;2.50;96.60
2767;DHT22;1391;46.74287300;11.63683300;2023-03-19T02:57:10;2.20;96.00
2767;DHT22;1391;46.74287300;11.63683300;2023-03-19T02:59:39;2.60;96.50
2767;DHT22;1391;46.74287300;11.63683300;2023-03-19T03:02:07;2.20;96.40
2767;DHT22;1391;46.74287300;11.63683300;2023-03-19T03:04:34;2.20;97.00
2767;DHT22;1391;46.74287300;11.63683300;2023-03-19T03:07:03;2.20;97.40
2767;DHT22;1391;46.74287300;11.63683300;2023-03-19T03:09:32;2.70;97.60
2767;DHT22;1391;46.74287300;11.63683300;2023-03-19T03:11:59;2.80;97.10
2767;DHT22;1391;46.74287300;11.63683300;2023-03-19T03:14:26;2.20;96.20
2767;DHT22;1391;46.74287300;11.63683300;2023-03-19T03:16:55;2.30;97.60
2767;DHT22;1391;46.74287300;11.63683300;2023-03-19T03:19:23;2.50;97.60
2767;DHT22;1391;46.74287300;11.63683300;2023-03-19T03:21:50;2.50;96.90
2767;DHT22;1391;46.74287300;11.63683300;2023-03-19T03:24:18;2.40;95.90
2767;DHT22;1391;46.74287300;11.63683300;2023-03-19T03:26:45;2.70;95.90
2767;DHT22;1391;46.74287300;11.63683300;2023-03-19T03:29:12;2.50;95.50
2767;DHT22;1391;46.74287300;11.63683300;2023-03-19T03:31:40;2.70;95.40
2767;DHT22;1391;46.74287300;11.63683300;2023-03-19T03:34:08;2.50;96.10
2767;DHT22;1391;46.74287300;11.63683300;2023-03-19T03:36:36;2.50;96.70
2767;DHT22;1391;46.74287300;11.63683300;2023-03-19T03:39:03;2.40;97.00
2767;DHT22;1391;46.74287300;11.63683300;2023-03-19T03:41:31;2.60;96.60
2767;DHT22;1391;46.74287300;11.63683300;2023-03-19T03:43:58;2.30;96.40
2767;DHT22;1391;46.74287300;11.63683300;2023-03-19T03:46:26;2.30;97.00
2767;DHT22;1391;46.74287300;11.63683300;2023-03-19T03:48:53;2.30;97.50
2767;DHT22;1391;46.74287300;11.63683300;2023-03-19T03:51:22;1.90;98.40
2767;DHT22;1391;46.74287300;11.63683300;2023-03-19T03:53:49;2.30;99.80
2767;DHT22;1391;46.74287300;11.63683300;2023-03-19T03:56:16;2.10;99.90
2767;DHT22;1391;46.74287300;11.63683300;2023-03-19T03:58:43;2.30;99.90
2767;DHT22;1391;46.74287300;11.63683300;2023-03-19T04:01:13;2.30;99.90
2767;DHT22;1391;46.74287300;11.63683300;2023-03-19T04:03:41;2.20;99.90
2767;DHT22;1391;46.74287300;11.63683300;2023-03-19T04:06:12;2.10;99.90
2767;DHT22;1391;46.74287300;11.63683300;2023-03-19T04:08:42;2.30;99.90
2767;DHT22;1391;46.74287300;11.63683300;2023-03-19T04:11:10;2.30;99.90
2767;DHT22;1391;46.74287300;11.63683300;2023-03-19T04:13:37;2.30;99.90
2767;DHT22;1391;46.74287300;11.63683300;2023-03-19T04:16:06;2.50;99.90
2767;DHT22;1391;46.74287300;11.63683300;2023-03-19T04:18:34;2.50;99.90
2767;DHT22;1391;46.74287300;11.63683300;2023-03-19T04:21:02;2.50;99.90
2767;DHT22;1391;46.74287300;11.63683300;2023-03-19T04:23:30;2.50;99.90
2767;DHT22;1391;46.74287300;11.63683300;2023-03-19T04:25:59;2.30;99.60
2767;DHT22;1391;46.74287300;11.63683300;2023-03-19T04:28:27;2.40;99.90
2767;DHT22;1391;46.74287300;11.63683300;2023-03-19T04:30:58;2.00;99.90
2767;DHT22;1391;46.74287300;11.63683300;2023-03-19T04:33:26;2.00;99.90
2767;DHT22;1391;46.74287300;11.63683300;2023-03-19T04:35:54;2.10;99.90
2767;DHT22;1391;46.74287300;11.63683300;2023-03-19T04:38:23;2.20;99.90
2767;DHT22;1391;46.74287300;11.63683300;2023-03-19T04:40:52;2.50;99.90
2767;DHT22;1391;46.74287300;11.63683300;2023-03-19T04:43:22;2.30;99.90
2767;DHT22;1391;46.74287300;11.63683300;2023-03-19T04:45:50;2.20;99.90
2767;DHT22;1391;46.74287300;11.63683300;2023-03-19T04:48:18;2.10;99.90
2767;DHT22;1391;46.74287300;11.63683300;2023-03-19T04:50:46;1.70;99.90
2767;DHT22;1391;46.74287300;11.63683300;2023-03-19T04:53:17;1.90;99.90
2767;DHT22;1391;46.74287300;11.63683300;2023-03-19T04:55:45;1.80;99.90
2767;DHT22;1391;46.74287300;11.63683300;2023-03-19T04:58:13;2.20;99.90
2767;DHT22;1391;46.74287300;11.63683300;2023-03-19T05:00:42;1.90;99.90
2767;DHT22;1391;46.74287300;11.63683300;2023-03-19T05:03:11;1.60;99.90
2767;DHT22;1391;46.74287300;11.63683300;2023-03-19T05:05:39;1.70;99.90
2767;DHT22;1391;46.74287300;11.63683300;2023-03-19T05:08:07;1.40;99.90
2767;DHT22;1391;46.74287300;11.63683300;2023-03-19T05:10:35;1.90;99.90
2767;DHT22;1391;46.74287300;11.63683300;2023-03-19T05:13:03;1.80;99.90
2767;DHT22;1391;46.74287300;11.63683300;2023-03-19T05:15:31;2.00;99.90
2767;DHT22;1391;46.74287300;11.63683300;2023-03-19T05:18:00;2.00;99.90
2767;DHT22;1391;46.74287300;11.63683300;2023-03-19T05:20:28;2.10;99.90
2767;DHT22;1391;46.74287300;11.63683300;2023-03-19T05:22:56;2.30;99.90
2767;DHT22;1391;46.74287300;11.63683300;2023-03-19T05:25:24;2.30;99.90
2767;DHT22;1391;46.74287300;11.63683300;2023-03-19T05:27:51;2.00;99.90
2767;DHT22;1391;46.74287300;11.63683300;2023-03-19T05:30:19;1.90;99.90
2767;DHT22;1391;46.74287300;11.63683300;2023-03-19T05:32:48;1.80;99.90
2767;DHT22;1391;46.74287300;11.63683300;2023-03-19T05:35:17;1.90;99.90
2767;DHT22;1391;46.74287300;11.63683300;2023-03-19T05:37:44;1.80;99.90
2767;DHT22;1391;46.74287300;11.63683300;2023-03-19T05:40:12;1.90;99.90
2767;DHT22;1391;46.74287300;11.63683300;2023-03-19T05:42:41;1.80;99.90
2767;DHT22;1391;46.74287300;11.63683300;2023-03-19T05:45:09;2.00;99.90
2767;DHT22;1391;46.74287300;11.63683300;2023-03-19T05:47:37;1.90;99.90
2767;DHT22;1391;46.74287300;11.63683300;2023-03-19T05:50:05;1.90;99.90
2767;DHT22;1391;46.74287300;11.63683300;2023-03-19T05:52:35;1.60;99.90
2767;DHT22;1391;46.74287300;11.63683300;2023-03-19T05:55:03;1.70;99.90
2767;DHT22;1391;46.74287300;11.63683300;2023-03-19T05:57:31;1.90;99.90
2767;DHT22;1391;46.74287300;11.63683300;2023-03-19T05:59:59;1.90;99.90
2767;DHT22;1391;46.74287300;11.63683300;2023-03-19T06:02:26;2.00;99.90
2767;DHT22;1391;46.74287300;11.63683300;2023-03-19T06:04:54;1.90;99.90
2767;DHT22;1391;46.74287300;11.63683300;2023-03-19T06:07:21;1.80;99.90
2767;DHT22;1391;46.74287300;11.63683300;2023-03-19T06:09:51;1.90;99.90
2767;DHT22;1391;46.74287300;11.63683300;2023-03-19T06:12:18;1.90;99.90
2767;DHT22;1391;46.74287300;11.63683300;2023-03-19T06:14:46;1.90;99.90
2767;DHT22;1391;46.74287300;11.63683300;2023-03-19T06:17:19;1.90;99.90
2767;DHT22;1391;46.74287300;11.63683300;2023-03-19T06:19:46;1.90;99.90
2767;DHT22;1391;46.74287300;11.63683300;2023-03-19T06:22:14;2.10;99.90
2767;DHT22;1391;46.74287300;11.63683300;2023-03-19T06:24:41;2.00;99.90
2767;DHT22;1391;46.74287300;11.63683300;2023-03-19T06:27:10;2.10;99.90
2767;DHT22;1391;46.74287300;11.63683300;2023-03-19T06:29:38;2.00;99.90
2767;DHT22;1391;46.74287300;11.63683300;2023-03-19T06:32:05;1.60;99.90
2767;DHT22;1391;46.74287300;11.63683300;2023-03-19T06:34:33;1.60;99.90
2767;DHT22;1391;46.74287300;11.63683300;2023-03-19T06:37:01;2.30;99.90
2767;DHT22;1391;46.74287300;11.63683300;2023-03-19T06:39:28;2.00;99.90
2767;DHT22;1391;46.74287300;11.63683300;2023-03-19T06:41:56;2.00;99.90
2767;DHT22;1391;46.74287300;11.63683300;2023-03-19T06:44:24;2.30;99.90
2767;DHT22;1391;46.74287300;11.63683300;2023-03-19T06:46:52;2.50;99.90
2767;DHT22;1391;46.74287300;11.63683300;2023-03-19T06:49:20;2.50;99.90
2767;DHT22;1391;46.74287300;11.63683300;2023-03-19T06:51:48;2.50;99.90
2767;DHT22;1391;46.74287300;11.63683300;2023-03-19T06:54:15;2.80;99.90
2767;DHT22;1391;46.74287300;11.63683300;2023-03-19T06:56:42;3.10;99.90
2767;DHT22;1391;46.74287300;11.63683300;2023-03-19T06:59:10;3.10;99.90
2767;DHT22;1391;46.74287300;11.63683300;2023-03-19T07:01:39;3.50;99.90
2767;DHT22;1391;46.74287300;11.63683300;2023-03-19T07:04:07;3.80;99.90
2767;DHT22;1391;46.74287300;11.63683300;2023-03-19T07:06:34;3.90;99.60
2767;DHT22;1391;46.74287300;11.63683300;2023-03-19T07:09:02;3.80;98.90
2767;DHT22;1391;46.74287300;11.63683300;2023-03-19T07:11:29;3.80;98.10
2767;DHT22;1391;46.74287300;11.63683300;2023-03-19T07:13:57;3.90;97.50
2767;DHT22;1391;46.74287300;11.63683300;2023-03-19T07:16:24;3.90;97.30
2767;DHT22;1391;46.74287300;11.63683300;2023-03-19T07:18:53;4.20;97.10
2767;DHT22;1391;46.74287300;11.63683300;2023-03-19T07:21:21;4.40;94.90
2767;DHT22;1391;46.74287300;11.63683300;2023-03-19T07:23:49;4.40;93.90
2767;DHT22;1391;46.74287300;11.63683300;2023-03-19T07:26:16;4.70;92.40
2767;DHT22;1391;46.74287300;11.63683300;2023-03-19T07:28:43;4.70;91.50
2767;DHT22;1391;46.74287300;11.63683300;2023-03-19T07:31:11;5.00;91.30
2767;DHT22;1391;46.74287300;11.63683300;2023-03-19T07:33:39;5.00;91.50
2767;DHT22;1391;46.74287300;11.63683300;2023-03-19T07:36:10;5.10;90.20
2767;DHT22;1391;46.74287300;11.63683300;2023-03-19T07:38:38;5.00;90.50
2767;DHT22;1391;46.74287300;11.63683300;2023-03-19T07:41:05;5.00;90.50
2767;DHT22;1391;46.74287300;11.63683300;2023-03-19T07:43:33;4.60;89.90
2767;DHT22;1391;46.74287300;11.63683300;2023-03-19T07:46:00;4.40;90.40
2767;DHT22;1391;46.74287300;11.63683300;2023-03-19T07:48:28;5.10;90.20
2767;DHT22;1391;46.74287300;11.63683300;2023-03-19T07:50:55;4.90;90.00
2767;DHT22;1391;46.74287300;11.63683300;2023-03-19T07:53:24;5.10;90.60
2767;DHT22;1391;46.74287300;11.63683300;2023-03-19T07:55:52;5.10;89.20
2767;DHT22;1391;46.74287300;11.63683300;2023-03-19T07:58:19;5.40;86.40
2767;DHT22;1391;46.74287300;11.63683300;2023-03-19T08:00:49;6.20;87.60
2767;DHT22;1391;46.74287300;11.63683300;2023-03-19T08:03:16;5.90;80.80
2767;DHT22;1391;46.74287300;11.63683300;2023-03-19T08:05:44;5.70;79.20
2767;DHT22;1391;46.74287300;11.63683300;2023-03-19T08:08:15;5.80;77.30
2767;DHT22;1391;46.74287300;11.63683300;2023-03-19T08:10:45;6.50;78.00
2767;DHT22;1391;46.74287300;11.63683300;2023-03-19T08:13:15;6.30;72.10
2767;DHT22;1391;46.74287300;11.63683300;2023-03-19T08:15:43;6.40;73.10
2767;DHT22;1391;46.74287300;11.63683300;2023-03-19T08:18:10;6.50;71.80
2767;DHT22;1391;46.74287300;11.63683300;2023-03-19T08:20:49;6.50;72.20
2767;DHT22;1391;46.74287300;11.63683300;2023-03-19T08:23:19;7.00;69.90
2767;DHT22;1391;46.74287300;11.63683300;2023-03-19T08:25:49;7.10;69.40
2767;DHT22;1391;46.74287300;11.63683300;2023-03-19T08:28:20;6.90;64.70
2767;DHT22;1391;46.74287300;11.63683300;2023-03-19T08:30:48;7.30;65.70
2767;DHT22;1391;46.74287300;11.63683300;2023-03-19T08:33:23;7.30;64.60
2767;DHT22;1391;46.74287300;11.63683300;2023-03-19T08:36:04;7.70;66.80
2767;DHT22;1391;46.74287300;11.63683300;2023-03-19T08:38:39;8.00;66.00
2767;DHT22;1391;46.74287300;11.63683300;2023-03-19T08:41:10;7.80;65.10
2767;DHT22;1391;46.74287300;11.63683300;2023-03-19T08:43:45;8.30;62.90
2767;DHT22;1391;46.74287300;11.63683300;2023-03-19T08:46:21;8.50;61.30
2767;DHT22;1391;46.74287300;11.63683300;2023-03-19T08:48:53;8.40;56.50
2767;DHT22;1391;46.74287300;11.63683300;2023-03-19T08:51:30;9.00;55.30
2767;DHT22;1391;46.74287300;11.63683300;2023-03-19T08:54:02;9.00;51.40
2767;DHT22;1391;46.74287300;11.63683300;2023-03-19T08:56:36;9.00;49.70
2767;DHT22;1391;46.74287300;11.63683300;2023-03-19T08:59:10;9.50;50.20
2767;DHT22;1391;46.74287300;11.63683300;2023-03-19T09:01:38;9.30;49.00
2767;DHT22;1391;46.74287300;11.63683300;2023-03-19T09:04:06;9.80;48.10
2767;DHT22;1391;46.74287300;11.63683300;2023-03-19T09:06:36;9.50;46.30
2767;DHT22;1391;46.74287300;11.63683300;2023-03-19T09:09:06;9.30;47.60
2767;DHT22;1391;46.74287300;11.63683300;2023-03-19T09:14:24;10.40;47.10
2767;DHT22;1391;46.74287300;11.63683300;2023-03-19T09:16:56;10.50;42.20
2767;DHT22;1391;46.74287300;11.63683300;2023-03-19T09:19:32;10.80;40.60
2767;DHT22;1391;46.74287300;11.63683300;2023-03-19T09:22:04;10.40;40.50
2767;DHT22;1391;46.74287300;11.63683300;2023-03-19T09:24:37;11.40;38.10
2767;DHT22;1391;46.74287300;11.63683300;2023-03-19T09:27:07;11.30;35.80
2767;DHT22;1391;46.74287300;11.63683300;2023-03-19T09:29:43;10.90;37.00
2767;DHT22;1391;46.74287300;11.63683300;2023-03-19T09:32:18;10.80;38.50
2767;DHT22;1391;46.74287300;11.63683300;2023-03-19T09:34:52;11.20;35.90
2767;DHT22;1391;46.74287300;11.63683300;2023-03-19T09:37:25;11.30;34.20
2767;DHT22;1391;46.74287300;11.63683300;2023-03-19T09:40:00;10.60;33.70
2767;DHT22;1391;46.74287300;11.63683300;2023-03-19T09:42:47;11.20;34.10
2767;DHT22;1391;46.74287300;11.63683300;2023-03-19T09:45:44;11.50;31.60
2767;DHT22;1391;46.74287300;11.63683300;2023-03-19T09:48:29;11.80;30.40
2767;DHT22;1391;46.74287300;11.63683300;2023-03-19T09:51:05;11.90;32.20
2767;DHT22;1391;46.74287300;11.63683300;2023-03-19T09:53:45;11.80;30.80
2767;DHT22;1391;46.74287300;11.63683300;2023-03-19T09:56:35;11.20;30.20
2767;DHT22;1391;46.74287300;11.63683300;2023-03-19T09:59:29;12.70;32.80
2767;DHT22;1391;46.74287300;11.63683300;2023-03-19T10:02:20;14.00;30.50
2767;DHT22;1391;46.74287300;11.63683300;2023-03-19T10:05:18;13.80;25.70
2767;DHT22;1391;46.74287300;11.63683300;2023-03-19T10:08:12;12.80;26.80
2767;DHT22;1391;46.74287300;11.63683300;2023-03-19T10:10:58;12.70;27.30
2767;DHT22;1391;46.74287300;11.63683300;2023-03-19T10:13:51;13.50;28.10
2767;DHT22;1391;46.74287300;11.63683300;2023-03-19T10:16:27;12.90;25.80
2767;DHT22;1391;46.74287300;11.63683300;2023-03-19T10:19:02;12.60;27.10
2767;DHT22;1391;46.74287300;11.63683300;2023-03-19T10:21:57;13.70;24.20
2767;DHT22;1391;46.74287300;11.63683300;2023-03-19T10:24:33;13.10;25.70
2767;DHT22;1391;46.74287300;11.63683300;2023-03-19T10:27:12;13.10;26.30
2767;DHT22;1391;46.74287300;11.63683300;2023-03-19T10:29:48;14.00;28.60
2767;DHT22;1391;46.74287300;11.63683300;2023-03-19T10:32:33;14.30;24.30
2767;DHT22;1391;46.74287300;11.63683300;2023-03-19T10:35:17;13.50;25.10
2767;DHT22;1391;46.74287300;11.63683300;2023-03-19T10:37:47;14.20;24.90
2767;DHT22;1391;46.74287300;11.63683300;2023-03-19T10:40:21;13.50;24.60
2767;DHT22;1391;46.74287300;11.63683300;2023-03-19T10:43:12;14.00;24.90
2767;DHT22;1391;46.74287300;11.63683300;2023-03-19T10:45:44;14.40;24.80
2767;DHT22;1391;46.74287300;11.63683300;2023-03-19T10:48:18;14.30;25.10
2767;DHT22;1391;46.74287300;11.63683300;2023-03-19T10:50:49;13.80;25.40
2767;DHT22;1391;46.74287300;11.63683300;2023-03-19T10:53:28;13.50;24.70
2767;DHT22;1391;46.74287300;11.63683300;2023-03-19T10:56:01;13.60;24.80
2767;DHT22;1391;46.74287300;11.63683300;2023-03-19T10:58:32;14.00;25.50
2767;DHT22;1391;46.74287300;11.63683300;2023-03-19T11:01:04;14.30;25.20
2767;DHT22;1391;46.74287300;11.63683300;2023-03-19T11:03:36;15.10;25.30
2767;DHT22;1391;46.74287300;11.63683300;2023-03-19T11:06:16;14.80;24.30
2767;DHT22;1391;46.74287300;11.63683300;2023-03-19T11:08:51;15.00;23.90
2767;DHT22;1391;46.74287300;11.63683300;2023-03-19T11:11:26;14.60;23.10
2767;DHT22;1391;46.74287300;11.63683300;2023-03-19T11:14:06;14.30;24.60
2767;DHT22;1391;46.74287300;11.63683300;2023-03-19T11:16:47;14.20;23.50
2767;DHT22;1391;46.74287300;11.63683300;2023-03-19T11:19:23;14.10;23.30
2767;DHT22;1391;46.74287300;11.63683300;2023-03-19T11:22:02;14.70;23.70
2767;DHT22;1391;46.74287300;11.63683300;2023-03-19T11:24:36;14.10;24.10
2767;DHT22;1391;46.74287300;11.63683300;2023-03-19T11:27:05;14.10;23.20
2767;DHT22;1391;46.74287300;11.63683300;2023-03-19T11:29:34;14.40;23.80
2767;DHT22;1391;46.74287300;11.63683300;2023-03-19T11:32:29;15.30;22.10
2767;DHT22;1391;46.74287300;11.63683300;2023-03-19T11:35:22;14.10;23.30
2767;DHT22;1391;46.74287300;11.63683300;2023-03-19T11:37:55;14.10;24.20
2767;DHT22;1391;46.74287300;11.63683300;2023-03-19T11:40:40;14.10;23.90
2767;DHT22;1391;46.74287300;11.63683300;2023-03-19T11:43:29;14.60;25.20
2767;DHT22;1391;46.74287300;11.63683300;2023-03-19T11:46:15;15.40;23.80
2767;DHT22;1391;46.74287300;11.63683300;2023-03-19T11:49:07;14.60;24.10
2767;DHT22;1391;46.74287300;11.63683300;2023-03-19T11:52:00;14.80;26.60
2767;DHT22;1391;46.74287300;11.63683300;2023-03-19T11:54:42;14.80;24.10
2767;DHT22;1391;46.74287300;11.63683300;2023-03-19T11:57:15;15.60;24.50
2767;DHT22;1391;46.74287300;11.63683300;2023-03-19T12:00:00;15.40;24.40
2767;DHT22;1391;46.74287300;11.63683300;2023-03-19T12:02:54;15.40;23.80
2767;DHT22;1391;46.74287300;11.63683300;2023-03-19T12:05:41;15.10;23.60
2767;DHT22;1391;46.74287300;11.63683300;2023-03-19T12:08:28;15.40;24.90
2767;DHT22;1391;46.74287300;11.63683300;2023-03-19T12:11:09;15.00;25.20
2767;DHT22;1391;46.74287300;11.63683300;2023-03-19T12:14:08;14.60;23.40
2767;DHT22;1391;46.74287300;11.63683300;2023-03-19T12:17:02;15.40;22.30
2767;DHT22;1391;46.74287300;11.63683300;2023-03-19T12:19:51;15.90;20.80
2767;DHT22;1391;46.74287300;11.63683300;2023-03-19T12:22:45;16.00;20.60
2767;DHT22;1391;46.74287300;11.63683300;2023-03-19T12:25:27;16.60;19.80
2767;DHT22;1391;46.74287300;11.63683300;2023-03-19T12:28:04;16.70;18.90
2767;DHT22;1391;46.74287300;11.63683300;2023-03-19T12:30:40;16.50;16.20
2767;DHT22;1391;46.74287300;11.63683300;2023-03-19T12:33:20;16.60;16.40
2767;DHT22;1391;46.74287300;11.63683300;2023-03-19T12:35:55;16.60;16.30
2767;DHT22;1391;46.74287300;11.63683300;2023-03-19T12:38:30;17.20;14.70
2767;DHT22;1391;46.74287300;11.63683300;2023-03-19T12:41:05;16.70;14.40
2767;DHT22;1391;46.74287300;11.63683300;2023-03-19T12:43:43;16.60;14.10
2767;DHT22;1391;46.74287300;11.63683300;2023-03-19T12:46:17;16.60;13.40
2767;DHT22;1391;46.74287300;11.63683300;2023-03-19T12:48:50;16.10;14.70
2767;DHT22;1391;46.74287300;11.63683300;2023-03-19T12:51:23;16.10;15.30
2767;DHT22;1391;46.74287300;11.63683300;2023-03-19T12:53:55;16.00;15.90
2767;DHT22;1391;46.74287300;11.63683300;2023-03-19T12:56:42;16.10;15.40
2767;DHT22;1391;46.74287300;11.63683300;2023-03-19T12:59:16;16.60;15.30
2767;DHT22;1391;46.74287300;11.63683300;2023-03-19T13:01:56;16.60;14.10
2767;DHT22;1391;46.74287300;11.63683300;2023-03-19T13:04:30;16.50;14.30
2767;DHT22;1391;46.74287300;11.63683300;2023-03-19T13:07:04;16.20;14.10
2767;DHT22;1391;46.74287300;11.63683300;2023-03-19T13:09:39;15.90;13.00
2767;DHT22;1391;46.74287300;11.63683300;2023-03-19T13:12:18;15.90;13.10
2767;DHT22;1391;46.74287300;11.63683300;2023-03-19T13:14:52;16.10;13.20
2767;DHT22;1391;46.74287300;11.63683300;2023-03-19T13:17:26;16.50;13.20
2767;DHT22;1391;46.74287300;11.63683300;2023-03-19T13:19:57;16.50;13.00
2767;DHT22;1391;46.74287300;11.63683300;2023-03-19T13:22:34;16.10;12.10
2767;DHT22;1391;46.74287300;11.63683300;2023-03-19T13:25:03;16.00;13.10
2767;DHT22;1391;46.74287300;11.63683300;2023-03-19T13:27:35;16.10;12.70
2767;DHT22;1391;46.74287300;11.63683300;2023-03-19T13:30:16;15.90;13.20
2767;DHT22;1391;46.74287300;11.63683300;2023-03-19T13:32:49;16.00;12.90
2767;DHT22;1391;46.74287300;11.63683300;2023-03-19T13:35:41;16.00;12.50
2767;DHT22;1391;46.74287300;11.63683300;2023-03-19T13:38:17;16.20;12.40
2767;DHT22;1391;46.74287300;11.63683300;2023-03-19T13:40:48;16.20;12.10
2767;DHT22;1391;46.74287300;11.63683300;2023-03-19T13:46:38;16.10;13.30
2767;DHT22;1391;46.74287300;11.63683300;2023-03-19T13:49:28;16.10;11.80
2767;DHT22;1391;46.74287300;11.63683300;2023-03-19T13:58:27;16.10;12.20
2767;DHT22;1391;46.74287300;11.63683300;2023-03-19T14:01:34;15.90;12.00
2767;DHT22;1391;46.74287300;11.63683300;2023-03-19T14:04:22;15.70;11.70
2767;DHT22;1391;46.74287300;11.63683300;2023-03-19T14:06:54;15.90;11.70
2767;DHT22;1391;46.74287300;11.63683300;2023-03-19T14:09:37;15.80;12.20
2767;DHT22;1391;46.74287300;11.63683300;2023-03-19T14:15:00;15.80;12.60
2767;DHT22;1391;46.74287300;11.63683300;2023-03-19T14:17:33;15.30;12.00
2767;DHT22;1391;46.74287300;11.63683300;2023-03-19T14:20:19;15.90;12.40
2767;DHT22;1391;46.74287300;11.63683300;2023-03-19T14:23:10;15.60;12.70
2767;DHT22;1391;46.74287300;11.63683300;2023-03-19T14:26:00;15.20;12.60